createdAt,value
2019-02-11T00:04:20.414Z,68.06
2019-02-11T00:09:22.849Z,67.88
2019-02-11T00:14:25.282Z,67.44
2019-02-11T00:19:27.712Z,67.42
2019-02-11T00:24:30.152Z,67.30
2019-02-11T00:29:32.590Z,67.26
2019-02-11T00:34:35.027Z,66.99
2019-02-11T00:39:37.453Z,66.63
2019-02-11T00:44:39.889Z,66.59
2019-02-11T00:49:42.315Z,66.41
2019-02-11T00:54:44.750Z,65.92
2019-02-11T00:59:47.198Z,65.50
2019-02-11T01:04:49.641Z,65.40
2019-02-11T01:09:52.134Z,65.05
2019-02-11T01:14:54.571Z,64.68
2019-02-11T01:19:57.007Z,64.71
2019-02-11T01:24:59.442Z,64.35
2019-02-11T01:30:01.871Z,64.23
2019-02-11T01:35:04.306Z,64.14
2019-02-11T01:40:06.748Z,64.06
2019-02-11T01:45:09.184Z,64.03
2019-02-11T01:50:11.627Z,63.92
2019-02-11T01:55:14.107Z,63.98
2019-02-11T02:00:18.389Z,64.19
2019-02-11T02:05:20.769Z,64.53
2019-02-11T02:10:23.202Z,64.44
2019-02-11T02:15:25.647Z,64.42
2019-02-11T02:20:28.057Z,64.34
2019-02-11T02:25:30.497Z,64.21
2019-02-11T02:30:32.925Z,64.08
2019-02-11T02:35:35.360Z,64.00
2019-02-11T02:40:37.806Z,63.85
2019-02-11T02:45:40.294Z,63.72
2019-02-11T02:50:42.713Z,63.53
2019-02-11T02:55:45.138Z,63.37
2019-02-11T03:00:47.567Z,63.38
2019-02-11T03:05:49.999Z,63.27
2019-02-11T03:10:52.475Z,63.35
2019-02-11T03:15:54.893Z,63.11
2019-02-11T03:20:57.322Z,62.98
2019-02-11T03:25:59.769Z,63.03
2019-02-11T03:31:02.204Z,63.00
2019-02-11T03:36:04.628Z,62.97
2019-02-11T03:41:07.043Z,62.98
2019-02-11T03:46:09.479Z,62.79
2019-02-11T03:51:12.014Z,62.94
2019-02-11T03:56:14.439Z,62.80
2019-02-11T04:01:16.887Z,63.01
2019-02-11T04:06:19.321Z,62.81
2019-02-11T04:11:21.746Z,62.84
2019-02-11T04:16:24.177Z,62.78
2019-02-11T04:21:26.605Z,62.85
2019-02-11T04:26:29.030Z,62.94
2019-02-11T04:31:31.467Z,62.76
2019-02-11T04:36:33.920Z,62.83
2019-02-11T04:41:36.358Z,62.90
2019-02-11T04:46:38.796Z,62.84
2019-02-11T04:51:41.255Z,62.71
2019-02-11T04:56:43.682Z,62.77
2019-02-11T05:01:46.140Z,62.67
2019-02-11T05:06:48.571Z,62.64
2019-02-11T05:11:51.012Z,62.63
2019-02-11T05:16:53.449Z,62.51
2019-02-11T05:21:55.879Z,62.43
2019-02-11T05:26:58.314Z,62.49
2019-02-11T05:32:00.746Z,62.36
2019-02-11T05:37:03.191Z,62.43
2019-02-11T05:42:05.631Z,62.26
2019-02-11T05:47:08.070Z,62.29
2019-02-11T05:52:10.496Z,62.37
2019-02-11T05:57:12.931Z,62.10
2019-02-11T06:02:15.387Z,62.24
2019-02-11T06:07:17.830Z,62.39
2019-02-11T06:12:20.294Z,62.41
2019-02-11T06:17:22.744Z,62.13
2019-02-11T06:22:25.182Z,62.00
2019-02-11T06:27:27.678Z,61.93
2019-02-11T06:32:30.115Z,61.90
2019-02-11T06:37:32.559Z,62.06
2019-02-11T06:42:34.988Z,62.11
2019-02-11T06:47:37.492Z,62.15
2019-02-11T06:52:39.865Z,62.16
2019-02-11T06:57:42.305Z,61.90
2019-02-11T07:02:44.740Z,61.90
2019-02-11T07:07:47.181Z,61.82
2019-02-11T07:12:49.616Z,61.70
2019-02-11T07:17:52.076Z,61.57
2019-02-11T07:22:54.493Z,61.45
2019-02-11T07:27:56.944Z,61.22
2019-02-11T07:32:59.393Z,60.95
2019-02-11T07:38:01.834Z,61.01
2019-02-11T07:43:04.266Z,60.84
2019-02-11T07:48:06.698Z,60.79
2019-02-11T07:53:09.127Z,60.92
2019-02-11T07:58:11.552Z,60.65
2019-02-11T08:03:14.000Z,60.47
2019-02-11T08:08:16.438Z,60.05
2019-02-11T08:13:18.877Z,60.16
2019-02-11T08:18:21.324Z,59.72
2019-02-11T08:23:23.751Z,59.22
2019-02-11T08:28:26.187Z,59.01
2019-02-11T08:33:30.470Z,58.34
2019-02-11T08:38:31.088Z,58.07
2019-02-11T08:43:33.512Z,57.99
2019-02-11T08:48:35.950Z,57.85
2019-02-11T08:53:38.387Z,57.77
2019-02-11T08:58:40.846Z,57.32
2019-02-11T09:03:43.281Z,56.56
2019-02-11T09:08:45.723Z,56.00
2019-02-11T09:13:48.162Z,55.12
2019-02-11T09:18:50.672Z,52.90
2019-02-11T09:23:53.103Z,50.70
2019-02-11T09:28:55.564Z,49.56
2019-02-11T09:33:58.012Z,46.04
2019-02-11T09:39:00.464Z,47.01
2019-02-11T09:44:02.917Z,48.43
2019-02-11T09:49:05.357Z,48.33
2019-02-11T09:54:07.824Z,48.24
2019-02-11T09:59:10.299Z,48.33
2019-02-11T10:04:12.752Z,47.99
2019-02-11T10:09:15.224Z,44.88
2019-02-11T10:14:17.670Z,45.77
2019-02-11T10:19:20.112Z,45.18
2019-02-11T10:24:22.571Z,47.23
2019-02-11T10:29:25.024Z,48.66
2019-02-11T10:34:27.456Z,49.50
2019-02-11T10:39:29.915Z,48.75
2019-02-11T10:44:32.366Z,49.45
2019-02-11T10:49:34.841Z,50.47
2019-02-11T10:54:37.277Z,51.26
2019-02-11T10:59:39.706Z,52.22
2019-02-11T11:04:42.169Z,52.63
2019-02-11T11:09:44.638Z,53.04
2019-02-11T11:14:47.080Z,52.47
2019-02-11T11:19:49.515Z,52.15
2019-02-11T11:24:51.955Z,52.81
2019-02-11T11:29:54.397Z,53.73
2019-02-11T11:34:56.845Z,55.38
2019-02-11T11:39:59.279Z,54.74
2019-02-11T11:45:01.815Z,52.77
2019-02-11T11:50:04.237Z,53.75
2019-02-11T11:55:12.615Z,54.28
2019-02-11T12:00:17.781Z,54.84
2019-02-11T12:05:20.220Z,51.81
2019-02-11T12:10:22.738Z,51.77
2019-02-11T12:15:25.148Z,48.77
2019-02-11T12:20:27.584Z,48.83
2019-02-11T12:25:30.033Z,49.21
2019-02-11T12:30:32.518Z,48.73
2019-02-11T12:35:34.932Z,50.18
2019-02-11T12:40:37.357Z,51.11
2019-02-11T12:45:39.833Z,51.69
2019-02-11T12:50:42.259Z,51.84
2019-02-11T12:55:44.704Z,51.78
2019-02-11T13:00:47.157Z,51.57
2019-02-11T13:05:49.601Z,51.38
2019-02-11T13:10:52.051Z,51.59
2019-02-11T13:16:00.912Z,52.69
2019-02-11T13:20:56.950Z,52.17
2019-02-11T13:25:59.385Z,52.13
2019-02-11T13:31:01.832Z,51.71
2019-02-11T13:36:04.304Z,51.95
2019-02-11T13:41:06.729Z,51.89
2019-02-11T13:46:09.177Z,51.65
2019-02-11T13:51:11.634Z,51.43
2019-02-11T13:56:14.113Z,50.29
2019-02-11T14:01:16.568Z,50.17
2019-02-11T14:06:19.022Z,50.62
2019-02-11T14:11:21.462Z,52.26
2019-02-11T14:16:23.988Z,53.64
2019-02-11T14:21:26.339Z,54.15
2019-02-11T14:26:28.788Z,55.73
2019-02-11T14:31:31.464Z,56.76
2019-02-11T14:36:33.767Z,59.32
2019-02-11T14:41:36.249Z,59.42
2019-02-11T14:46:38.684Z,59.36
2019-02-11T14:51:41.268Z,60.14
2019-02-11T14:56:43.706Z,58.97
2019-02-11T15:01:46.181Z,58.13
2019-02-11T15:06:48.712Z,58.40
2019-02-11T15:11:51.155Z,59.36
2019-02-11T15:16:53.590Z,58.85
2019-02-11T15:21:56.020Z,59.46
2019-02-11T15:26:58.461Z,59.63
2019-02-11T15:32:01.014Z,59.92
2019-02-11T15:37:03.459Z,59.52
2019-02-11T15:42:05.883Z,59.74
2019-02-11T15:47:08.351Z,59.70
2019-02-11T15:52:10.806Z,59.68
2019-02-11T15:57:13.254Z,59.90
2019-02-11T16:02:15.695Z,60.04
2019-02-11T16:07:18.148Z,60.12
2019-02-11T16:12:20.592Z,60.58
2019-02-11T16:17:23.038Z,61.04
2019-02-11T16:22:25.490Z,61.32
2019-02-11T16:27:28.664Z,61.40
2019-02-11T16:32:30.383Z,61.22
2019-02-11T16:37:32.831Z,61.17
2019-02-11T16:42:35.276Z,61.14
2019-02-11T16:47:37.728Z,61.23
2019-02-11T16:52:40.193Z,61.20
2019-02-11T16:57:43.190Z,61.40
2019-02-11T17:02:45.632Z,61.25
2019-02-11T17:07:48.092Z,61.14
2019-02-11T17:12:50.562Z,61.11
2019-02-11T17:17:54.268Z,61.41
2019-02-11T17:22:56.702Z,61.11
2019-02-11T17:27:59.177Z,60.88
2019-02-11T17:33:01.633Z,61.50
2019-02-11T17:38:04.107Z,62.20
2019-02-11T17:43:06.583Z,62.84
2019-02-11T17:48:09.063Z,63.07
2019-02-11T17:53:11.518Z,63.06
2019-02-11T17:58:14.010Z,63.16
2019-02-11T18:03:16.466Z,63.38
2019-02-11T18:08:18.966Z,63.52
2019-02-11T18:13:21.436Z,63.62
2019-02-11T18:18:23.899Z,63.95
2019-02-11T18:23:26.313Z,64.30
2019-02-11T18:28:28.769Z,63.99
2019-02-11T18:33:31.240Z,63.91
2019-02-11T18:38:33.703Z,64.16
2019-02-11T18:43:36.158Z,64.25
2019-02-11T18:48:38.646Z,64.60
2019-02-11T18:53:41.117Z,65.05
2019-02-11T18:58:43.570Z,65.10
2019-02-11T19:03:46.043Z,65.18
2019-02-11T19:08:48.505Z,65.33
2019-02-11T19:13:52.835Z,65.70
2019-02-11T19:18:55.281Z,66.18
2019-02-11T19:23:57.714Z,66.36
2019-02-11T19:29:00.203Z,66.52
2019-02-11T19:34:02.646Z,66.92
2019-02-11T19:39:05.119Z,66.97
2019-02-11T19:44:07.604Z,67.15
2019-02-11T19:49:10.057Z,67.54
2019-02-11T19:54:12.508Z,67.90
2019-02-11T19:59:14.960Z,68.17
2019-02-11T20:04:17.416Z,68.31
2019-02-11T20:09:19.859Z,68.70
2019-02-11T20:14:22.444Z,68.85
2019-02-11T20:19:24.907Z,69.44
2019-02-11T20:24:27.388Z,69.67
2019-02-11T20:29:29.838Z,69.89
2019-02-11T20:34:32.283Z,69.94
2019-02-11T20:39:34.739Z,70.40
2019-02-11T20:44:37.733Z,70.71
2019-02-11T20:49:40.218Z,70.93
2019-02-11T20:54:42.677Z,71.20
2019-02-11T20:59:45.128Z,71.39
2019-02-11T21:04:48.015Z,71.47
2019-02-11T21:09:50.491Z,71.58
2019-02-11T21:14:52.941Z,72.46
2019-02-11T21:19:55.406Z,72.63
2019-02-11T21:24:57.875Z,72.34
2019-02-11T21:30:00.332Z,72.81
2019-02-11T21:35:02.755Z,72.87
2019-02-11T21:40:05.220Z,72.32
2019-02-11T21:45:10.378Z,72.20
2019-02-11T21:50:12.824Z,72.35
2019-02-11T21:55:20.998Z,72.13
2019-02-11T22:00:23.439Z,72.21
2019-02-11T22:05:25.996Z,72.43
2019-02-11T22:10:28.524Z,72.76
2019-02-11T22:15:30.932Z,72.78
2019-02-11T22:20:34.787Z,73.09
2019-02-11T22:25:35.848Z,73.34
2019-02-11T22:30:38.312Z,72.95
2019-02-11T22:35:40.767Z,72.97
2019-02-11T22:40:43.209Z,72.62
2019-02-11T22:45:45.652Z,72.00
2019-02-11T22:50:48.113Z,72.74
2019-02-11T22:55:50.552Z,73.24
2019-02-11T23:00:53.249Z,73.10
2019-02-11T23:05:55.687Z,73.08
2019-02-11T23:10:58.121Z,72.94
2019-02-11T23:16:00.575Z,73.09
2019-02-11T23:21:03.042Z,73.06
2019-02-11T23:26:05.498Z,73.37
2019-02-11T23:31:07.940Z,73.49
2019-02-11T23:36:10.381Z,73.25
2019-02-11T23:41:12.814Z,73.50
2019-02-11T23:46:15.249Z,73.35
2019-02-11T23:51:17.686Z,73.22
2019-02-11T23:56:20.121Z,73.20
